aviador You're here:

KDVL Decoded Metar

DEVILS LAKE in ND, USA
Report Time2018-04-26 12:56:00
UTC Time2018-04-26 13:13:35
Flight Rules vfr VFR
Wind340° at 09 kt
W.Decomp.*RWY 31: 8.3 kt HW 3.5 kt RCW
RWY 03: 4.9 kt HW 7.5 kt LCW
W.Rank340° ranks 11
Current wind is below 340° avg. (11.5)
Visibility9999 m
Phenomena:N/A
Clouds:N/A
Expected CloudBase > 2,000 ft AGL from Temp-Dew spread
CeilingNone
Temp03°C (ISA -9)
Dew Point-2°C (70% RH)
AAT-2.5°C
QNH1019 hPa
Density Alt223 ft
Elevation1,453 ft
Report Wrong Elevation
Raw Report
KDVL 261256Z AUTO 34009KT 10SM CLR 03/M02 A3009 RMK AO2 SLP213
T00331017=

Extra information for KDVL:More info

Metar Taf Metar & Taf Last 4 Metars F.Rules Stats Wind Profile Meteogram Temp Stats Airport Information Weather charts Add Link Nearby VenuesMetar ALERT Operation Metar Decoded Social comments

AIRNAV info for KDVL